Time;durP1;ratioP1;P1;durP2;ratioP2;P2;SDS_P1;SDS_P2;PMS_P1;PMS_P2;Temp;Humidity;BMP_temperature;BMP_pressure;BME280_temperature;BME280_humidity;BME280_pressure;Samples;Min_cycle;Max_cycle;Signal;HPM_P1;HPM_P2
2023/07/07 00:01:17;;;;;;;2.30;1.08;;;20.60;57.10;;;;;;2523322;54;20996;-71
2023/07/07 00:03:44;;;;;;;2.33;1.08;;;20.60;57.10;;;;;;2293065;55;20944;-67
2023/07/07 00:06:11;;;;;;;2.42;1.20;;;20.60;57.20;;;;;;2525119;54;20957;-68
2023/07/07 00:08:40;;;;;;;3.35;1.30;;;20.50;57.30;;;;;;2292101;56;20976;-67
2023/07/07 00:11:07;;;;;;;2.92;1.27;;;20.50;57.90;;;;;;2526948;54;20904;-68
2023/07/07 00:13:33;;;;;;;2.55;1.05;;;20.50;57.40;;;;;;2292502;55;20963;-68
2023/07/07 00:16:00;;;;;;;2.70;1.10;;;20.50;57.40;;;;;;2291680;55;21010;-67
2023/07/07 00:18:27;;;;;;;2.75;1.10;;;20.40;57.40;;;;;;2505611;54;21036;-68
2023/07/07 00:20:58;;;;;;;1.92;0.90;;;20.40;57.40;;;;;;2525336;54;20978;-67
2023/07/07 00:23:25;;;;;;;2.40;1.27;;;20.40;57.30;;;;;;2292419;55;21031;-68
2023/07/07 00:26:06;;;;;;;2.45;1.10;;;20.30;57.40;;;;;;2291627;55;20995;-67
2023/07/07 00:28:32;;;;;;;2.70;1.05;;;20.30;57.00;;;;;;2500950;54;20961;-68
2023/07/07 00:30:59;;;;;;;2.40;1.17;;;20.30;57.50;;;;;;2514233;54;21025;-68
2023/07/07 00:33:28;;;;;;;2.40;0.90;;;20.30;57.50;;;;;;2280241;55;21805;-68
2023/07/07 00:35:54;;;;;;;2.80;1.20;;;20.30;57.60;;;;;;2526035;54;20952;-67
2023/07/07 00:38:21;;;;;;;2.50;1.10;;;20.20;57.60;;;;;;2527664;54;21000;-68
2023/07/07 00:40:49;;;;;;;2.47;1.08;;;20.20;57.60;;;;;;2292802;55;20984;-66
2023/07/07 00:43:16;;;;;;;2.55;1.17;;;20.20;57.70;;;;;;2527618;54;21117;-68
2023/07/07 00:45:44;;;;;;;3.10;1.20;;;20.10;57.60;;;;;;2292539;55;20917;-68
2023/07/07 00:48:19;;;;;;;2.40;1.10;;;20.10;57.60;;;;;;2292218;55;20896;-68
2023/07/07 00:50:58;;;;;;;2.40;1.00;;;19.90;57.50;;;;;;2293004;55;21821;-67
2023/07/07 00:53:27;;;;;;;1.95;0.85;;;20.00;57.30;;;;;;2292988;55;20948;-68
2023/07/07 00:56:08;;;;;;;2.70;1.23;;;20.00;57.70;;;;;;2292659;56;20896;-66
2023/07/07 00:58:35;;;;;;;2.50;1.17;;;20.00;57.60;;;;;;2500631;54;20913;-67
2023/07/07 01:01:05;;;;;;;2.83;1.10;;;19.90;58.30;;;;;;2291870;55;20945;-70
2023/07/07 01:03:37;;;;;;;2.60;1.20;;;19.90;57.70;;;;;;2293071;55;20940;-68
2023/07/07 01:06:06;;;;;;;1.83;0.77;;;19.90;57.80;;;;;;2292430;55;21212;-67
2023/07/07 01:08:36;;;;;;;3.25;1.27;;;20.00;58.00;;;;;;2292613;55;21005;-68
2023/07/07 01:11:03;;;;;;;2.25;1.08;;;19.70;57.80;;;;;;2291891;56;21517;-68
2023/07/07 01:13:29;;;;;;;3.53;1.37;;;19.80;58.00;;;;;;2528590;54;21643;-67
2023/07/07 01:19:30;;;;;;;2.50;1.00;;;19.80;58.10;;;;;;2527088;54;20932;-67
2023/07/07 01:22:34;;;;;;;3.45;0.80;;;19.70;58.00;;;;;;2524383;54;20904;-68
2023/07/07 01:28:20;;;;;;;2.28;0.85;;;19.70;57.70;;;;;;2292394;55;20900;-69
2023/07/07 01:30:52;;;;;;;2.05;1.00;;;19.70;57.40;;;;;;2290612;55;20947;-67
2023/07/07 01:33:22;;;;;;;3.92;1.00;;;19.60;58.10;;;;;;2528199;54;20948;-68
2023/07/07 01:35:49;;;;;;;2.45;1.10;;;19.60;58.30;;;;;;2292641;55;21032;-68
2023/07/07 01:38:33;;;;;;;2.08;0.98;;;19.50;58.30;;;;;;2527818;54;20972;-68
2023/07/07 01:42:32;;;;;;;2.20;0.90;;;19.50;58.00;;;;;;2292184;55;21036;-69
2023/07/07 01:46:18;;;;;;;2.55;1.10;;;19.50;58.10;;;;;;2292451;55;20900;-68
2023/07/07 01:48:57;;;;;;;2.00;0.90;;;19.40;57.80;;;;;;2292983;55;20924;-68
2023/07/07 01:51:27;;;;;;;2.53;1.17;;;19.40;58.50;;;;;;2528495;54;20936;-68
2023/07/07 01:53:53;;;;;;;2.37;1.02;;;19.30;58.50;;;;;;2527856;54;20944;-67
2023/07/07 01:56:22;;;;;;;2.40;1.00;;;19.30;58.60;;;;;;2292343;55;20989;-69
2023/07/07 01:58:49;;;;;;;2.05;1.00;;;19.20;58.60;;;;;;2527907;54;20912;-67
2023/07/07 02:01:17;;;;;;;3.22;1.20;;;19.20;58.60;;;;;;2284680;55;20957;-67
2023/07/07 02:03:44;;;;;;;2.62;1.25;;;19.20;58.70;;;;;;2516502;54;21056;-66
2023/07/07 02:06:10;;;;;;;2.85;1.35;;;19.10;58.70;;;;;;2292529;55;20940;-66
2023/07/07 02:08:38;;;;;;;3.53;1.12;;;19.10;58.90;;;;;;2293124;56;21410;-67
2023/07/07 02:11:05;;;;;;;4.25;2.05;;;19.10;58.90;;;;;;2527830;54;21099;-71
2023/07/07 02:13:34;;;;;;;2.22;1.15;;;19.00;58.80;;;;;;2528390;54;21730;-66
2023/07/07 02:16:00;;;;;;;2.97;1.37;;;19.00;58.90;;;;;;2527879;54;20976;-66
2023/07/07 02:18:26;;;;;;;2.87;1.25;;;19.00;59.00;;;;;;2293348;56;21004;-69
2023/07/07 02:20:53;;;;;;;2.37;1.12;;;19.00;59.00;;;;;;2294520;55;21085;-67
2023/07/07 02:23:22;;;;;;;2.70;1.25;;;19.00;59.00;;;;;;2273588;55;20908;-70
2023/07/07 02:25:50;;;;;;;3.28;1.30;;;18.90;58.90;;;;;;2292905;55;21416;-67
2023/07/07 02:28:16;;;;;;;3.37;1.15;;;18.90;58.90;;;;;;2292732;55;20876;-67
2023/07/07 02:30:44;;;;;;;2.50;1.08;;;18.70;58.80;;;;;;2528597;54;20912;-66
2023/07/07 02:33:11;;;;;;;2.25;1.15;;;18.80;58.90;;;;;;2527716;54;20912;-68
2023/07/07 02:35:39;;;;;;;4.00;1.35;;;18.80;58.90;;;;;;2293556;55;20948;-68
2023/07/07 02:38:05;;;;;;;2.58;1.10;;;18.60;58.70;;;;;;2291541;55;21005;-67
2023/07/07 02:40:32;;;;;;;2.30;1.10;;;18.70;58.90;;;;;;2273146;56;21726;-67
2023/07/07 02:43:00;;;;;;;2.47;1.20;;;18.80;59.00;;;;;;2292402;55;21027;-66
2023/07/07 02:45:29;;;;;;;2.58;1.15;;;18.70;58.90;;;;;;2518463;54;20985;-67
2023/07/07 02:47:55;;;;;;;2.75;1.10;;;18.70;59.00;;;;;;2511399;54;20929;-68
2023/07/07 02:50:22;;;;;;;2.05;1.12;;;18.60;58.90;;;;;;2528155;54;20996;-70
2023/07/07 02:52:50;;;;;;;2.30;1.00;;;18.60;58.90;;;;;;2528864;54;20916;-66
2023/07/07 02:55:17;;;;;;;2.10;0.90;;;18.60;58.90;;;;;;2527689;54;20985;-70
2023/07/07 02:57:43;;;;;;;2.47;1.02;;;18.50;58.90;;;;;;2528319;54;21261;-67
2023/07/07 03:00:13;;;;;;;2.50;1.33;;;18.50;59.00;;;;;;2522690;54;21042;-67
2023/07/07 03:02:39;;;;;;;2.62;1.20;;;18.50;59.10;;;;;;2258827;55;20988;-68
2023/07/07 03:05:06;;;;;;;2.60;1.20;;;18.40;59.10;;;;;;2502345;54;21002;-67
2023/07/07 03:07:32;;;;;;;2.70;1.10;;;18.40;59.20;;;;;;2292043;55;20897;-70
2023/07/07 03:09:59;;;;;;;2.70;1.27;;;18.40;59.20;;;;;;2279365;55;20994;-68
2023/07/07 03:12:25;;;;;;;2.80;1.30;;;18.30;59.20;;;;;;2285622;55;20932;-68
2023/07/07 03:14:54;;;;;;;2.50;1.15;;;18.30;59.30;;;;;;2525246;54;20928;-68
2023/07/07 03:17:21;;;;;;;3.10;1.10;;;18.30;59.30;;;;;;2527795;54;20904;-68
2023/07/07 03:19:48;;;;;;;2.78;1.20;;;18.30;59.40;;;;;;2296804;55;21471;-70
2023/07/07 03:22:16;;;;;;;2.58;1.20;;;18.30;59.40;;;;;;2526770;54;21004;-67
2023/07/07 03:24:42;;;;;;;2.70;1.30;;;18.30;59.40;;;;;;2527977;54;21374;-67
2023/07/07 03:27:09;;;;;;;3.33;1.37;;;18.20;59.30;;;;;;2527259;54;21456;-67
2023/07/07 03:29:36;;;;;;;2.05;0.95;;;18.20;59.30;;;;;;2528196;54;20952;-71
2023/07/07 03:32:03;;;;;;;2.35;1.20;;;18.20;59.40;;;;;;2291977;55;21043;-68
2023/07/07 03:34:30;;;;;;;2.50;1.17;;;18.20;59.40;;;;;;2293509;55;20931;-71
2023/07/07 03:37:00;;;;;;;2.35;1.10;;;18.10;59.40;;;;;;2526741;54;20944;-69
2023/07/07 03:39:27;;;;;;;2.15;1.00;;;18.10;59.50;;;;;;2291965;56;20979;-67
2023/07/07 03:41:54;;;;;;;2.58;1.20;;;18.10;59.50;;;;;;2527377;54;20917;-68
2023/07/07 03:44:20;;;;;;;3.10;0.95;;;18.10;59.60;;;;;;2516740;54;20904;-66
2023/07/07 03:46:47;;;;;;;2.67;1.00;;;18.10;59.60;;;;;;2292353;55;20944;-67
2023/07/07 03:49:13;;;;;;;3.10;1.12;;;18.00;59.50;;;;;;2290868;56;21019;-67
2023/07/07 03:51:39;;;;;;;3.50;1.60;;;18.00;59.60;;;;;;2285732;55;20961;-67
2023/07/07 03:54:06;;;;;;;2.83;1.35;;;18.00;59.60;;;;;;2279331;55;21801;-69
2023/07/07 03:56:32;;;;;;;2.80;1.33;;;18.00;59.70;;;;;;2293156;56;20995;-65
2023/07/07 03:58:59;;;;;;;3.47;1.25;;;18.00;59.80;;;;;;2526703;54;20920;-68
2023/07/07 04:01:27;;;;;;;2.60;1.20;;;17.90;59.80;;;;;;2501110;54;1410441;-72
2023/07/07 04:03:55;;;;;;;3.70;1.30;;;17.90;59.80;;;;;;2291707;56;20908;-67
2023/07/07 04:06:21;;;;;;;3.15;1.33;;;17.90;59.80;;;;;;2295622;55;20992;-67
2023/07/07 04:08:48;;;;;;;3.10;1.80;;;17.90;59.90;;;;;;2271127;55;20897;-67
2023/07/07 04:11:19;;;;;;;3.25;1.30;;;17.80;59.80;;;;;;2526164;54;20985;-68
2023/07/07 04:13:46;;;;;;;2.80;1.20;;;17.80;59.70;;;;;;2501657;54;21009;-71
2023/07/07 04:16:24;;;;;;;2.95;1.45;;;17.80;59.80;;;;;;2526692;54;21532;-68
2023/07/07 04:19:00;;;;;;;2.53;1.27;;;17.80;59.80;;;;;;2527902;54;20995;-68
2023/07/07 04:21:27;;;;;;;2.72;1.30;;;17.80;60.00;;;;;;2527557;54;20935;-71
2023/07/07 04:23:57;;;;;;;2.60;1.10;;;17.70;59.90;;;;;;2527051;54;20968;-67
2023/07/07 04:26:24;;;;;;;3.35;1.50;;;17.70;60.00;;;;;;2507544;54;20993;-67
2023/07/07 04:28:51;;;;;;;2.80;1.30;;;17.70;60.20;;;;;;2287823;55;21000;-69
2023/07/07 04:31:18;;;;;;;2.00;1.05;;;17.70;60.30;;;;;;2291945;55;20916;-69
2023/07/07 04:33:45;;;;;;;2.92;1.42;;;17.70;60.40;;;;;;2292373;55;20972;-68
2023/07/07 04:36:13;;;;;;;2.65;1.27;;;17.70;60.40;;;;;;2526814;54;21780;-69
2023/07/07 04:38:42;;;;;;;2.75;1.30;;;17.80;60.60;;;;;;2292023;55;20916;-69
2023/07/07 04:41:23;;;;;;;2.72;1.30;;;17.80;60.70;;;;;;2292017;55;21777;-71
2023/07/07 04:43:52;;;;;;;2.80;1.30;;;17.80;60.50;;;;;;2292717;56;20983;-68
2023/07/07 04:46:22;;;;;;;2.87;1.25;;;17.80;60.70;;;;;;2280407;55;20990;-69
2023/07/07 04:48:48;;;;;;;3.08;1.35;;;17.80;60.80;;;;;;2288006;55;20960;-71
2023/07/07 04:51:15;;;;;;;3.15;1.50;;;17.80;60.80;;;;;;2526248;54;20967;-67
2023/07/07 04:53:41;;;;;;;3.83;1.62;;;17.90;60.90;;;;;;2292156;56;21496;-67
2023/07/07 04:56:15;;;;;;;3.10;1.58;;;17.80;60.80;;;;;;2526255;54;20969;-69
2023/07/07 04:58:42;;;;;;;2.90;1.33;;;17.80;60.80;;;;;;2527753;54;20984;-67
2023/07/07 05:01:15;;;;;;;2.83;1.30;;;17.80;61.00;;;;;;2527734;54;21008;-67
2023/07/07 05:03:41;;;;;;;;;;;17.80;61.00;;;;;;2296738;55;20976;-67
2023/07/07 05:06:09;;;;;;;3.17;1.50;;;17.90;60.40;;;;;;2528122;54;20165;-66
2023/07/07 05:08:37;;;;;;;2.90;1.30;;;17.90;61.30;;;;;;2527789;54;21040;-67
2023/07/07 05:11:04;;;;;;;3.45;1.70;;;17.90;61.40;;;;;;2512384;54;20945;-68
2023/07/07 05:13:31;;;;;;;3.37;1.37;;;17.90;61.50;;;;;;2284630;55;21483;-67
2023/07/07 05:16:11;;;;;;;2.55;1.35;;;17.90;61.60;;;;;;2527539;54;21643;-67
2023/07/07 05:18:39;;;;;;;3.50;1.50;;;18.00;61.40;;;;;;2290020;55;21012;-68
2023/07/07 05:21:07;;;;;;;3.65;1.58;;;18.00;62.00;;;;;;2526794;54;20915;-67
2023/07/07 05:23:38;;;;;;;3.47;1.50;;;18.00;61.90;;;;;;2292765;55;20944;-66
2023/07/07 05:26:04;;;;;;;4.28;1.62;;;18.00;61.90;;;;;;2527507;54;20944;-68
2023/07/07 05:28:31;;;;;;;3.15;1.40;;;18.10;62.00;;;;;;2292538;55;21565;-68
2023/07/07 05:31:01;;;;;;;5.07;1.98;;;18.20;62.20;;;;;;2292051;55;20957;-67
2023/07/07 05:33:30;;;;;;;3.35;1.75;;;18.20;62.10;;;;;;2293302;55;20884;-67
2023/07/07 05:36:05;;;;;;;4.20;1.70;;;18.20;62.10;;;;;;2527121;54;20932;-71
2023/07/07 05:38:31;;;;;;;3.17;1.58;;;18.30;62.10;;;;;;2528260;54;20920;-69
2023/07/07 05:40:57;;;;;;;3.95;2.20;;;18.30;62.30;;;;;;2292189;55;20885;-67
2023/07/07 05:43:26;;;;;;;3.65;1.67;;;18.40;62.40;;;;;;2292931;55;20975;-67
2023/07/07 05:46:02;;;;;;;3.03;1.65;;;18.40;62.40;;;;;;2514620;54;20973;-68
2023/07/07 05:48:29;;;;;;;4.12;1.92;;;18.50;62.20;;;;;;2282455;55;20916;-71
2023/07/07 05:50:59;;;;;;;3.83;2.15;;;18.50;62.50;;;;;;2292867;55;22391;-67
2023/07/07 05:53:29;;;;;;;4.37;2.08;;;18.60;62.50;;;;;;2293222;55;20912;-67
2023/07/07 05:56:03;;;;;;;3.87;1.80;;;18.70;62.70;;;;;;2284453;55;22080;-70
2023/07/07 05:58:29;;;;;;;4.55;2.08;;;18.70;62.70;;;;;;2515671;54;20944;-67
2023/07/07 06:00:56;;;;;;;4.32;2.00;;;18.80;62.70;;;;;;2527678;54;21092;-67
2023/07/07 06:03:24;;;;;;;3.35;1.60;;;18.80;62.60;;;;;;2500383;54;21064;-68
2023/07/07 06:05:50;;;;;;;3.42;2.00;;;18.90;62.80;;;;;;2527311;54;20903;-66
2023/07/07 06:08:17;;;;;;;3.78;1.85;;;19.00;62.90;;;;;;2527400;54;20896;-68
2023/07/07 06:10:49;;;;;;;4.47;2.30;;;19.00;62.80;;;;;;2292630;55;21519;-67
2023/07/07 06:13:23;;;;;;;3.78;1.77;;;19.10;62.70;;;;;;2292117;56;21587;-66
2023/07/07 06:15:53;;;;;;;3.28;1.62;;;19.10;62.80;;;;;;2293227;55;21017;-67
2023/07/07 06:18:19;;;;;;;5.07;2.08;;;19.20;62.80;;;;;;2292677;55;21510;-68
2023/07/07 06:20:52;;;;;;;3.80;1.80;;;19.30;63.00;;;;;;2525453;54;20947;-68
2023/07/07 06:23:23;;;;;;;3.20;1.80;;;19.30;62.80;;;;;;2502319;54;20973;-68
2023/07/07 06:25:49;;;;;;;3.40;1.67;;;19.40;63.10;;;;;;2275189;55;20908;-67
2023/07/07 06:28:16;;;;;;;4.60;2.00;;;19.50;63.10;;;;;;2527504;54;21020;-66
2023/07/07 06:30:45;;;;;;;3.90;2.08;;;19.50;63.10;;;;;;2528080;54;20996;-68
2023/07/07 06:33:12;;;;;;;3.50;1.80;;;19.60;63.10;;;;;;2527187;54;20976;-69
2023/07/07 06:35:39;;;;;;;4.15;2.10;;;19.60;63.10;;;;;;2294552;55;20995;-67
2023/07/07 06:38:06;;;;;;;3.53;1.90;;;19.70;63.20;;;;;;2503069;54;20960;-67
2023/07/07 06:40:34;;;;;;;4.43;1.87;;;19.80;63.30;;;;;;2527657;54;21342;-68
2023/07/07 06:43:05;;;;;;;5.37;2.47;;;19.90;63.40;;;;;;2293380;55;20929;-69
2023/07/07 06:45:33;;;;;;;3.53;1.87;;;20.00;63.30;;;;;;2526879;54;20967;-69
2023/07/07 06:48:02;;;;;;;4.30;1.98;;;20.00;63.50;;;;;;2527146;54;20976;-67
2023/07/07 06:50:34;;;;;;;5.55;2.25;;;20.10;63.50;;;;;;2527658;54;20928;-70
2023/07/07 06:53:05;;;;;;;4.07;1.95;;;20.20;63.30;;;;;;2519402;54;21046;-67
2023/07/07 06:55:38;;;;;;;5.22;2.00;;;20.30;63.50;;;;;;2277048;55;21079;-70
2023/07/07 06:58:04;;;;;;;3.55;2.00;;;20.30;63.40;;;;;;2506343;54;20970;-67
2023/07/07 07:00:31;;;;;;;3.08;1.67;;;20.50;63.80;;;;;;2522231;54;21000;-68
2023/07/07 07:02:57;;;;;;;3.05;1.52;;;20.50;63.70;;;;;;2286011;55;21356;-69
2023/07/07 07:05:24;;;;;;;3.92;2.00;;;20.60;63.70;;;;;;2487400;54;20995;-67
2023/07/07 07:07:51;;;;;;;6.00;1.92;;;20.70;63.70;;;;;;2292539;55;20916;-68
2023/07/07 07:10:17;;;;;;;4.93;2.00;;;20.80;63.90;;;;;;2527518;54;21733;-67
2023/07/07 07:12:49;;;;;;;4.82;1.90;;;20.90;64.10;;;;;;2292667;55;20986;-67
2023/07/07 07:15:15;;;;;;;4.40;1.95;;;21.00;64.10;;;;;;2273421;55;21321;-70
2023/07/07 07:17:41;;;;;;;4.85;1.48;;;21.10;64.10;;;;;;2527524;54;20980;-68
2023/07/07 07:20:11;;;;;;;4.30;1.90;;;21.20;64.10;;;;;;2526824;54;21705;-68
2023/07/07 07:22:37;;;;;;;3.47;1.83;;;21.30;64.20;;;;;;2526418;54;20904;-68
2023/07/07 07:25:05;;;;;;;3.95;2.10;;;21.40;64.20;;;;;;2527779;54;21000;-69
2023/07/07 07:27:32;;;;;;;3.75;2.05;;;21.50;64.20;;;;;;2292949;55;20932;-68
2023/07/07 07:29:59;;;;;;;4.37;1.75;;;21.60;64.20;;;;;;2292575;55;20888;-69
2023/07/07 07:32:25;;;;;;;3.35;1.83;;;21.70;64.00;;;;;;2292513;55;22270;-67
2023/07/07 07:34:51;;;;;;;3.28;1.85;;;21.80;63.80;;;;;;2287116;55;21859;-68
2023/07/07 07:37:19;;;;;;;3.22;1.70;;;21.90;63.80;;;;;;2279438;55;21337;-72
2023/07/07 07:39:45;;;;;;;3.55;1.80;;;22.00;63.70;;;;;;2527865;54;21003;-69
2023/07/07 07:42:11;;;;;;;3.70;2.00;;;22.10;63.60;;;;;;2500651;54;20965;-69
2023/07/07 07:44:39;;;;;;;3.65;1.92;;;22.20;63.60;;;;;;2527271;54;20941;-67
2023/07/07 07:47:07;;;;;;;3.90;1.70;;;22.30;63.60;;;;;;2291572;55;21794;-69
2023/07/07 07:49:33;;;;;;;4.55;2.00;;;22.50;63.50;;;;;;2292535;55;20936;-70
2023/07/07 07:51:59;;;;;;;3.42;1.70;;;22.60;63.60;;;;;;2292274;55;20960;-68
2023/07/07 07:54:26;;;;;;;3.60;1.62;;;22.70;63.60;;;;;;2292644;55;22104;-70
2023/07/07 07:56:52;;;;;;;3.55;1.67;;;22.80;63.50;;;;;;2292914;55;21429;-69
2023/07/07 07:59:19;;;;;;;4.05;2.08;;;22.90;63.30;;;;;;2292648;55;21000;-71
2023/07/07 08:01:46;;;;;;;2.72;1.50;;;23.00;63.20;;;;;;2292441;55;21833;-68
2023/07/07 08:04:12;;;;;;;3.45;1.58;;;23.10;63.20;;;;;;2291859;55;20944;-68
2023/07/07 08:06:41;;;;;;;4.95;1.60;;;23.20;63.10;;;;;;2527395;54;20972;-70
2023/07/07 08:09:08;;;;;;;3.97;2.00;;;23.30;63.00;;;;;;2526282;54;20928;-69
2023/07/07 08:12:11;;;;;;;3.35;1.62;;;23.50;63.00;;;;;;2528036;54;21456;-69
2023/07/07 08:14:37;;;;;;;3.40;1.70;;;23.60;61.20;;;;;;2284970;55;21029;-69
2023/07/07 08:17:08;;;;;;;4.70;1.70;;;23.70;62.80;;;;;;2496083;55;21033;-70
2023/07/07 08:19:36;;;;;;;3.53;1.70;;;23.80;62.50;;;;;;2527112;54;20933;-71
2023/07/07 08:22:07;;;;;;;3.83;1.70;;;23.90;62.60;;;;;;2293190;55;21003;-69
2023/07/07 08:24:39;;;;;;;2.67;1.50;;;24.00;62.40;;;;;;2527586;54;20979;-72
2023/07/07 08:27:06;;;;;;;3.97;2.28;;;24.10;62.50;;;;;;2292968;55;21739;-68
2023/07/07 08:29:35;;;;;;;4.18;2.10;;;24.10;62.40;;;;;;2526997;54;20968;-66
2023/07/07 08:32:03;;;;;;;3.70;1.90;;;24.20;62.20;;;;;;2528406;54;20912;-66
2023/07/07 08:34:30;;;;;;;3.72;1.83;;;24.40;62.20;;;;;;2292893;55;21061;-67
2023/07/07 08:37:01;;;;;;;3.33;1.90;;;24.40;62.10;;;;;;2286671;55;21470;-67
2023/07/07 08:39:28;;;;;;;3.03;1.70;;;24.60;62.40;;;;;;2277615;55;21477;-68
2023/07/07 08:42:05;;;;;;;3.45;1.65;;;24.60;62.20;;;;;;2292127;55;21003;-71
2023/07/07 08:44:34;;;;;;;3.08;1.60;;;24.70;61.40;;;;;;2273969;55;20968;-67
2023/07/07 08:47:31;;;;;;;4.22;1.98;;;24.80;62.10;;;;;;2292675;55;20945;-70
2023/07/07 08:50:06;;;;;;;3.45;1.90;;;25.00;61.00;;;;;;2516937;54;20993;-68
2023/07/07 08:56:02;;;;;;;4.32;1.60;;;24.90;61.30;;;;;;2515230;54;20936;-69
2023/07/07 09:01:54;;;;;;;2.65;1.42;;;25.20;60.70;;;;;;2527966;54;20940;-69
2023/07/07 09:07:16;;;;;;;2.50;1.20;;;25.40;60.80;;;;;;2527709;54;21446;-68
2023/07/07 09:11:24;;;;;;;2.60;1.30;;;25.60;60.10;;;;;;2526266;54;20921;-68
2023/07/07 09:13:54;;;;;;;2.75;1.42;;;25.80;61.00;;;;;;2292127;56;20924;-68
2023/07/07 09:16:35;;;;;;;3.92;1.80;;;25.80;61.40;;;;;;2291963;55;21024;-67
2023/07/07 09:19:12;;;;;;;3.67;1.97;;;25.90;60.30;;;;;;2292889;55;21756;-71
2023/07/07 09:21:45;;;;;;;4.07;1.85;;;26.00;60.20;;;;;;2293084;55;20908;-67
2023/07/07 09:24:49;;;;;;;3.90;1.80;;;26.00;61.00;;;;;;2527206;54;21012;-67
2023/07/07 09:27:28;;;;;;;3.85;1.87;;;26.10;60.50;;;;;;2526790;54;20924;-68
2023/07/07 09:30:10;;;;;;;3.67;2.00;;;26.20;59.60;;;;;;2292685;55;20984;-72
2023/07/07 09:32:38;;;;;;;3.35;1.80;;;26.30;59.70;;;;;;2293146;55;21009;-72
2023/07/07 09:35:06;;;;;;;3.60;2.05;;;26.40;60.40;;;;;;2292321;55;21144;-68
2023/07/07 09:40:18;;;;;;;4.65;2.00;;;26.50;60.20;;;;;;2527356;54;21461;-71
2023/07/07 09:45:59;;;;;;;3.97;1.62;;;26.60;59.20;;;;;;2527482;54;21009;-68
2023/07/07 09:48:44;;;;;;;2.80;1.40;;;26.70;59.80;;;;;;2527766;54;20943;-68
2023/07/07 09:53:46;;;;;;;3.03;1.48;;;27.00;59.70;;;;;;2290900;55;21366;-67
2023/07/07 09:56:16;;;;;;;5.25;1.65;;;27.10;59.40;;;;;;2526368;54;20941;-70
2023/07/07 09:58:57;;;;;;;4.30;2.03;;;27.20;60.40;;;;;;2291853;55;20934;-68
2023/07/07 10:01:28;;;;;;;3.28;1.65;;;27.30;59.30;;;;;;2527564;54;20924;-70
2023/07/07 10:03:55;;;;;;;3.12;1.75;;;27.30;60.00;;;;;;2527750;54;20964;-68
2023/07/07 10:07:22;;;;;;;3.70;2.00;;;27.40;60.00;;;;;;2527262;54;20932;-68
2023/07/07 10:09:49;;;;;;;5.25;1.85;;;27.60;58.60;;;;;;2292206;55;20984;-68
2023/07/07 10:12:19;;;;;;;4.10;1.90;;;27.70;59.90;;;;;;2500304;54;21029;-69
2023/07/07 10:14:49;;;;;;;4.57;2.17;;;27.70;59.80;;;;;;2292733;55;21103;-70
2023/07/07 10:19:53;;;;;;;4.10;2.17;;;27.80;59.50;;;;;;2527486;54;20944;-69
2023/07/07 10:22:20;;;;;;;4.60;1.80;;;28.00;57.90;;;;;;2505479;54;21001;-70
2023/07/07 10:24:46;;;;;;;5.43;1.95;;;28.20;59.80;;;;;;2288556;55;21001;-69
2023/07/07 10:27:18;;;;;;;3.90;1.87;;;28.20;59.50;;;;;;2527101;54;20991;-68
2023/07/07 10:29:45;;;;;;;3.95;1.87;;;28.30;59.20;;;;;;2292705;55;20952;-68
2023/07/07 10:32:12;;;;;;;3.85;1.90;;;28.40;59.20;;;;;;2527509;54;20972;-70
2023/07/07 10:34:42;;;;;;;3.90;1.95;;;28.50;59.10;;;;;;2285970;55;21089;-68
2023/07/07 10:37:23;;;;;;;3.50;2.05;;;28.60;58.70;;;;;;2514279;54;21008;-69
2023/07/07 10:39:54;;;;;;;3.30;1.92;;;28.80;57.70;;;;;;2292759;55;20940;-68
2023/07/07 10:42:23;;;;;;;5.07;2.25;;;28.80;58.60;;;;;;2527915;54;20976;-68
2023/07/07 10:44:50;;;;;;;5.22;2.33;;;28.90;58.70;;;;;;2292181;55;20988;-71
2023/07/07 10:47:38;;;;;;;3.92;2.37;;;29.00;58.40;;;;;;2291714;55;20984;-68
2023/07/07 10:50:22;;;;;;;4.07;1.92;;;29.10;58.30;;;;;;2292292;55;21422;-68
2023/07/07 10:53:10;;;;;;;5.37;1.92;;;29.20;57.70;;;;;;2527671;54;21440;-68
2023/07/07 10:56:03;;;;;;;4.85;2.28;;;29.30;57.90;;;;;;2528101;54;21975;-68
2023/07/07 11:04:36;;;;;;;3.15;1.73;;;29.40;57.20;;;;;;2292267;55;20916;-67
2023/07/07 11:07:21;;;;;;;3.20;1.55;;;29.60;57.20;;;;;;2291704;56;20992;-67
2023/07/07 11:11:14;;;;;;;3.47;1.80;;;29.80;58.20;;;;;;2527063;54;21020;-68
2023/07/07 11:17:39;;;;;;;3.10;1.80;;;29.90;56.80;;;;;;2527472;54;21028;-68
2023/07/07 11:20:56;;;;;;;3.40;1.58;;;30.20;57.50;;;;;;2292399;56;21011;-69
2023/07/07 11:23:53;;;;;;;3.80;1.80;;;30.30;57.00;;;;;;2527428;54;20908;-68
2023/07/07 11:26:29;;;;;;;2.97;1.77;;;30.40;56.90;;;;;;2526799;54;20936;-67
2023/07/07 11:29:15;;;;;;;3.22;1.75;;;30.50;57.10;;;;;;2512076;54;21493;-68
2023/07/07 11:33:04;;;;;;;3.50;2.10;;;30.50;56.20;;;;;;2509419;54;20977;-69
2023/07/07 11:36:11;;;;;;;4.40;2.10;;;30.70;55.50;;;;;;2527052;54;21048;-68
2023/07/07 11:43:27;;;;;;;5.78;2.20;;;30.80;55.20;;;;;;2509509;54;20926;-67
2023/07/07 11:47:02;;;;;;;3.25;1.58;;;30.90;55.90;;;;;;2291952;56;20913;-68
2023/07/07 11:53:05;;;;;;;3.28;1.77;;;31.10;56.20;;;;;;2504919;54;20965;-69
2023/07/07 11:57:38;;;;;;;3.50;1.67;;;31.20;55.20;;;;;;2526689;54;21773;-73
2023/07/07 12:01:31;;;;;;;3.85;2.03;;;31.40;55.30;;;;;;2292167;55;21793;-69
2023/07/07 12:04:08;;;;;;;3.22;1.77;;;31.60;55.30;;;;;;2527012;54;20952;-68
2023/07/07 12:06:45;;;;;;;4.07;2.25;;;31.60;55.70;;;;;;2292323;55;20916;-68
2023/07/07 12:09:42;;;;;;;3.90;2.05;;;31.70;56.00;;;;;;2527520;54;21714;-69
2023/07/07 12:12:55;;;;;;;3.67;1.90;;;31.70;53.80;;;;;;2527615;54;20980;-69
2023/07/07 12:15:37;;;;;;;3.95;2.03;;;31.80;54.30;;;;;;2292230;55;20995;-70
2023/07/07 12:18:20;;;;;;;4.82;2.30;;;31.90;54.10;;;;;;2511821;54;21029;-70
2023/07/07 12:20:49;;;;;;;4.03;2.17;;;31.90;53.70;;;;;;2269976;55;20960;-69
2023/07/07 12:23:29;;;;;;;3.92;2.40;;;32.00;55.30;;;;;;2527693;54;20964;-70
2023/07/07 12:26:12;;;;;;;4.07;2.40;;;32.10;54.50;;;;;;2528090;54;20933;-70
2023/07/07 12:28:39;;;;;;;4.35;2.28;;;32.10;54.60;;;;;;2505047;54;20909;-69
2023/07/07 12:31:05;;;;;;;3.90;2.45;;;32.20;54.70;;;;;;2292642;55;20929;-69
2023/07/07 12:33:39;;;;;;;3.85;2.10;;;32.30;54.60;;;;;;2292522;55;20984;-69
2023/07/07 12:36:06;;;;;;;3.35;1.98;;;32.30;53.30;;;;;;2292578;55;20912;-70
2023/07/07 12:38:33;;;;;;;2.97;1.70;;;32.40;54.30;;;;;;2527670;54;20992;-69
2023/07/07 12:41:10;;;;;;;3.83;1.95;;;32.50;54.40;;;;;;2292699;55;20924;-69
2023/07/07 12:43:43;;;;;;;3.65;2.10;;;32.50;52.70;;;;;;2527542;54;21477;-68
2023/07/07 12:46:24;;;;;;;5.05;2.28;;;32.60;53.90;;;;;;2292315;55;21028;-68
2023/07/07 12:48:53;;;;;;;5.18;2.10;;;32.70;52.60;;;;;;2292740;55;20957;-68
2023/07/07 12:51:22;;;;;;;5.10;2.30;;;32.70;53.80;;;;;;2291633;56;21004;-66
2023/07/07 12:53:54;;;;;;;3.83;2.37;;;32.70;53.20;;;;;;2527840;54;20991;-68
2023/07/07 12:56:22;;;;;;;4.30;1.98;;;32.80;52.70;;;;;;2291429;55;21029;-70
2023/07/07 12:58:53;;;;;;;3.25;1.90;;;32.90;53.30;;;;;;2276064;55;20906;-69
2023/07/07 13:01:40;;;;;;;3.70;2.10;;;32.90;52.80;;;;;;2528153;54;21372;-72
2023/07/07 13:04:11;;;;;;;5.47;2.00;;;33.00;51.70;;;;;;2292656;55;20955;-68
2023/07/07 13:07:11;;;;;;;4.12;2.40;;;33.00;52.30;;;;;;2292358;55;20964;-69
2023/07/07 13:09:48;;;;;;;5.57;2.53;;;33.10;51.20;;;;;;2292611;55;21515;-71
2023/07/07 13:12:45;;;;;;;5.97;2.37;;;33.20;50.90;;;;;;2527453;54;21020;-69
2023/07/07 13:15:18;;;;;;;3.80;2.05;;;33.20;50.00;;;;;;2527352;54;21385;-69
2023/07/07 13:17:46;;;;;;;3.53;1.90;;;33.30;51.80;;;;;;2287494;55;20974;-69
2023/07/07 13:20:15;;;;;;;4.35;2.40;;;33.30;52.30;;;;;;2280078;55;21008;-68
2023/07/07 13:22:48;;;;;;;3.87;1.90;;;33.30;52.10;;;;;;2527643;54;20988;-69
2023/07/07 13:25:33;;;;;;;3.90;2.08;;;33.40;52.20;;;;;;2516824;54;20935;-71
2023/07/07 13:28:00;;;;;;;2.85;1.60;;;33.40;50.50;;;;;;2501384;54;21005;-69
2023/07/07 13:30:34;;;;;;;3.75;1.98;;;33.50;52.30;;;;;;2282214;55;20976;-69
2023/07/07 13:33:05;;;;;;;5.82;2.05;;;33.60;51.30;;;;;;2527458;54;20965;-68
2023/07/07 13:35:31;;;;;;;3.30;1.90;;;33.60;51.00;;;;;;2521631;54;21838;-69
2023/07/07 13:38:09;;;;;;;5.75;1.95;;;33.70;51.50;;;;;;2280413;55;20896;-69
2023/07/07 13:40:36;;;;;;;3.72;2.15;;;33.70;49.90;;;;;;2527214;54;21648;-68
2023/07/07 13:43:02;;;;;;;3.75;2.00;;;33.80;51.20;;;;;;2527584;54;20940;-69
2023/07/07 13:45:31;;;;;;;3.62;2.10;;;33.80;51.20;;;;;;2527134;54;20905;-69
2023/07/07 13:47:58;;;;;;;3.40;1.90;;;33.90;51.10;;;;;;2528039;54;21811;-70
2023/07/07 13:50:29;;;;;;;4.05;2.05;;;33.90;51.10;;;;;;2528277;54;20928;-73
2023/07/07 13:53:02;;;;;;;3.15;1.77;;;34.00;50.50;;;;;;2526519;54;20932;-70
2023/07/07 13:55:36;;;;;;;4.90;1.92;;;34.10;50.40;;;;;;2292607;55;20964;-67
2023/07/07 13:58:04;;;;;;;4.00;1.90;;;34.20;49.90;;;;;;2526661;54;20980;-68
2023/07/07 14:00:35;;;;;;;3.22;1.85;;;34.20;50.60;;;;;;2292864;55;20940;-71
2023/07/07 14:03:03;;;;;;;3.70;1.55;;;34.30;50.60;;;;;;2290115;55;20958;-69
2023/07/07 14:05:31;;;;;;;5.95;1.98;;;34.40;50.50;;;;;;2508300;54;20915;-69